sensor_id;sensor_type;location;lat;lon;timestamp;P1;durP1;ratioP1;P2;durP2;ratioP2
46318;SDS011;32042;50.916;2.926;2022-07-06T00:01:37;6.23;;;4.23;;
46318;SDS011;32042;50.916;2.926;2022-07-06T00:04:03;7.57;;;4.07;;
46318;SDS011;32042;50.916;2.926;2022-07-06T00:06:30;14.00;;;4.33;;
46318;SDS011;32042;50.916;2.926;2022-07-06T00:08:56;10.10;;;4.47;;
46318;SDS011;32042;50.916;2.926;2022-07-06T00:11:22;6.90;;;4.40;;
46318;SDS011;32042;50.916;2.926;2022-07-06T00:13:48;7.10;;;4.37;;
46318;SDS011;32042;50.916;2.926;2022-07-06T00:16:14;7.53;;;4.67;;
46318;SDS011;32042;50.916;2.926;2022-07-06T00:18:40;7.10;;;4.17;;
46318;SDS011;32042;50.916;2.926;2022-07-06T00:21:06;10.10;;;4.57;;
46318;SDS011;32042;50.916;2.926;2022-07-06T00:23:32;5.63;;;4.03;;
46318;SDS011;32042;50.916;2.926;2022-07-06T00:25:57;5.83;;;4.23;;
46318;SDS011;32042;50.916;2.926;2022-07-06T00:28:23;8.00;;;4.73;;
46318;SDS011;32042;50.916;2.926;2022-07-06T00:30:49;5.47;;;4.47;;
46318;SDS011;32042;50.916;2.926;2022-07-06T00:33:14;7.40;;;4.00;;
46318;SDS011;32042;50.916;2.926;2022-07-06T00:35:40;8.20;;;4.40;;
46318;SDS011;32042;50.916;2.926;2022-07-06T00:38:06;9.90;;;4.07;;
46318;SDS011;32042;50.916;2.926;2022-07-06T00:40:32;8.10;;;4.50;;
46318;SDS011;32042;50.916;2.926;2022-07-06T00:42:57;5.83;;;4.70;;
46318;SDS011;32042;50.916;2.926;2022-07-06T00:45:23;6.27;;;4.30;;
46318;SDS011;32042;50.916;2.926;2022-07-06T00:47:49;4.77;;;4.00;;
46318;SDS011;32042;50.916;2.926;2022-07-06T00:50:16;8.93;;;4.87;;
46318;SDS011;32042;50.916;2.926;2022-07-06T00:52:51;5.53;;;4.90;;
46318;SDS011;32042;50.916;2.926;2022-07-06T00:55:20;6.67;;;4.63;;
46318;SDS011;32042;50.916;2.926;2022-07-06T00:57:51;7.67;;;4.57;;
46318;SDS011;32042;50.916;2.926;2022-07-06T01:00:19;8.27;;;5.20;;
46318;SDS011;32042;50.916;2.926;2022-07-06T01:02:47;6.20;;;4.37;;
46318;SDS011;32042;50.916;2.926;2022-07-06T01:05:14;6.57;;;4.40;;
46318;SDS011;32042;50.916;2.926;2022-07-06T01:07:41;6.13;;;4.20;;
46318;SDS011;32042;50.916;2.926;2022-07-06T01:10:08;5.57;;;4.50;;
46318;SDS011;32042;50.916;2.926;2022-07-06T01:12:36;9.23;;;4.80;;
46318;SDS011;32042;50.916;2.926;2022-07-06T01:15:04;6.77;;;4.83;;
46318;SDS011;32042;50.916;2.926;2022-07-06T01:17:32;11.53;;;5.30;;
46318;SDS011;32042;50.916;2.926;2022-07-06T01:19:58;11.30;;;4.93;;
46318;SDS011;32042;50.916;2.926;2022-07-06T01:22:30;10.23;;;4.80;;
46318;SDS011;32042;50.916;2.926;2022-07-06T01:24:55;6.27;;;4.30;;
46318;SDS011;32042;50.916;2.926;2022-07-06T01:27:21;7.27;;;4.67;;
46318;SDS011;32042;50.916;2.926;2022-07-06T01:29:47;11.47;;;5.67;;
46318;SDS011;32042;50.916;2.926;2022-07-06T01:32:12;9.00;;;5.33;;
46318;SDS011;32042;50.916;2.926;2022-07-06T01:34:39;8.70;;;4.57;;
46318;SDS011;32042;50.916;2.926;2022-07-06T01:37:05;10.37;;;5.17;;
46318;SDS011;32042;50.916;2.926;2022-07-06T01:39:31;10.27;;;5.57;;
46318;SDS011;32042;50.916;2.926;2022-07-06T01:41:57;15.33;;;6.13;;
46318;SDS011;32042;50.916;2.926;2022-07-06T01:44:22;14.80;;;5.53;;
46318;SDS011;32042;50.916;2.926;2022-07-06T01:46:48;9.20;;;5.70;;
46318;SDS011;32042;50.916;2.926;2022-07-06T01:49:15;9.27;;;5.57;;
46318;SDS011;32042;50.916;2.926;2022-07-06T01:51:41;7.60;;;5.50;;
46318;SDS011;32042;50.916;2.926;2022-07-06T01:54:06;7.80;;;5.87;;
46318;SDS011;32042;50.916;2.926;2022-07-06T01:56:32;7.93;;;6.10;;
46318;SDS011;32042;50.916;2.926;2022-07-06T01:58:58;6.80;;;6.20;;
46318;SDS011;32042;50.916;2.926;2022-07-06T02:01:23;8.33;;;6.40;;
46318;SDS011;32042;50.916;2.926;2022-07-06T02:03:49;6.87;;;6.17;;
46318;SDS011;32042;50.916;2.926;2022-07-06T02:06:15;8.13;;;5.70;;
46318;SDS011;32042;50.916;2.926;2022-07-06T02:08:41;9.83;;;5.87;;
46318;SDS011;32042;50.916;2.926;2022-07-06T02:11:08;7.40;;;5.77;;
46318;SDS011;32042;50.916;2.926;2022-07-06T02:13:35;9.37;;;6.63;;
46318;SDS011;32042;50.916;2.926;2022-07-06T02:16:01;8.57;;;6.20;;
46318;SDS011;32042;50.916;2.926;2022-07-06T02:18:27;7.00;;;6.40;;
46318;SDS011;32042;50.916;2.926;2022-07-06T02:20:53;8.10;;;6.63;;
46318;SDS011;32042;50.916;2.926;2022-07-06T02:23:19;6.93;;;6.27;;
46318;SDS011;32042;50.916;2.926;2022-07-06T02:25:45;8.33;;;7.00;;
46318;SDS011;32042;50.916;2.926;2022-07-06T02:28:10;8.03;;;6.53;;
46318;SDS011;32042;50.916;2.926;2022-07-06T02:30:36;6.93;;;6.33;;
46318;SDS011;32042;50.916;2.926;2022-07-06T02:33:02;6.73;;;5.90;;
46318;SDS011;32042;50.916;2.926;2022-07-06T02:35:30;6.73;;;5.87;;
46318;SDS011;32042;50.916;2.926;2022-07-06T02:37:57;7.20;;;6.50;;
46318;SDS011;32042;50.916;2.926;2022-07-06T02:40:23;7.33;;;6.73;;
46318;SDS011;32042;50.916;2.926;2022-07-06T02:42:50;12.80;;;6.60;;
46318;SDS011;32042;50.916;2.926;2022-07-06T02:45:17;7.43;;;6.83;;
46318;SDS011;32042;50.916;2.926;2022-07-06T02:47:43;8.57;;;6.20;;
46318;SDS011;32042;50.916;2.926;2022-07-06T02:50:10;7.30;;;6.60;;
46318;SDS011;32042;50.916;2.926;2022-07-06T02:52:37;8.33;;;6.73;;
46318;SDS011;32042;50.916;2.926;2022-07-06T02:55:04;6.70;;;6.10;;
46318;SDS011;32042;50.916;2.926;2022-07-06T02:57:30;10.37;;;7.53;;
46318;SDS011;32042;50.916;2.926;2022-07-06T02:59:55;9.97;;;6.73;;
46318;SDS011;32042;50.916;2.926;2022-07-06T03:02:21;7.23;;;6.57;;
46318;SDS011;32042;50.916;2.926;2022-07-06T03:04:47;7.77;;;6.87;;
46318;SDS011;32042;50.916;2.926;2022-07-06T03:07:12;7.53;;;6.57;;
46318;SDS011;32042;50.916;2.926;2022-07-06T03:09:38;7.37;;;6.77;;
46318;SDS011;32042;50.916;2.926;2022-07-06T03:12:04;8.30;;;6.30;;
46318;SDS011;32042;50.916;2.926;2022-07-06T03:14:30;7.33;;;6.67;;
46318;SDS011;32042;50.916;2.926;2022-07-06T03:16:55;8.40;;;7.17;;
46318;SDS011;32042;50.916;2.926;2022-07-06T03:19:21;8.67;;;6.70;;
46318;SDS011;32042;50.916;2.926;2022-07-06T03:21:47;8.13;;;7.23;;
46318;SDS011;32042;50.916;2.926;2022-07-06T03:24:12;7.40;;;6.60;;
46318;SDS011;32042;50.916;2.926;2022-07-06T03:26:38;6.93;;;6.23;;
46318;SDS011;32042;50.916;2.926;2022-07-06T03:29:04;10.70;;;7.73;;
46318;SDS011;32042;50.916;2.926;2022-07-06T03:31:29;9.00;;;7.20;;
46318;SDS011;32042;50.916;2.926;2022-07-06T03:33:55;9.40;;;6.80;;
46318;SDS011;32042;50.916;2.926;2022-07-06T03:36:21;11.67;;;7.43;;
46318;SDS011;32042;50.916;2.926;2022-07-06T03:38:47;8.57;;;6.63;;
46318;SDS011;32042;50.916;2.926;2022-07-06T03:41:12;9.53;;;6.80;;
46318;SDS011;32042;50.916;2.926;2022-07-06T03:43:38;9.70;;;6.97;;
46318;SDS011;32042;50.916;2.926;2022-07-06T03:46:04;10.03;;;7.13;;
46318;SDS011;32042;50.916;2.926;2022-07-06T03:48:29;10.27;;;7.93;;
46318;SDS011;32042;50.916;2.926;2022-07-06T03:50:55;10.87;;;7.50;;
46318;SDS011;32042;50.916;2.926;2022-07-06T03:53:21;18.80;;;7.70;;
46318;SDS011;32042;50.916;2.926;2022-07-06T03:55:47;12.30;;;8.23;;
46318;SDS011;32042;50.916;2.926;2022-07-06T03:58:33;12.97;;;8.73;;
46318;SDS011;32042;50.916;2.926;2022-07-06T04:00:59;14.33;;;8.43;;
46318;SDS011;32042;50.916;2.926;2022-07-06T04:03:25;14.43;;;8.47;;
46318;SDS011;32042;50.916;2.926;2022-07-06T04:05:50;10.37;;;8.40;;
46318;SDS011;32042;50.916;2.926;2022-07-06T04:08:16;9.10;;;8.27;;
46318;SDS011;32042;50.916;2.926;2022-07-06T04:10:42;9.07;;;8.27;;
46318;SDS011;32042;50.916;2.926;2022-07-06T04:13:07;11.60;;;8.03;;
46318;SDS011;32042;50.916;2.926;2022-07-06T04:15:33;10.40;;;7.47;;
46318;SDS011;32042;50.916;2.926;2022-07-06T04:17:59;16.07;;;8.10;;
46318;SDS011;32042;50.916;2.926;2022-07-06T04:20:25;10.27;;;7.83;;
46318;SDS011;32042;50.916;2.926;2022-07-06T04:22:51;8.83;;;8.07;;
46318;SDS011;32042;50.916;2.926;2022-07-06T04:25:17;8.53;;;7.80;;
46318;SDS011;32042;50.916;2.926;2022-07-06T04:27:43;8.93;;;8.07;;
46318;SDS011;32042;50.916;2.926;2022-07-06T04:30:09;11.33;;;8.90;;
46318;SDS011;32042;50.916;2.926;2022-07-06T04:32:35;12.07;;;8.03;;
46318;SDS011;32042;50.916;2.926;2022-07-06T04:35:02;17.50;;;8.47;;
46318;SDS011;32042;50.916;2.926;2022-07-06T04:37:28;11.63;;;7.63;;
46318;SDS011;32042;50.916;2.926;2022-07-06T04:39:54;13.60;;;8.53;;
46318;SDS011;32042;50.916;2.926;2022-07-06T04:42:20;8.20;;;7.27;;
46318;SDS011;32042;50.916;2.926;2022-07-06T04:44:45;11.00;;;8.13;;
46318;SDS011;32042;50.916;2.926;2022-07-06T04:47:12;8.77;;;7.23;;
46318;SDS011;32042;50.916;2.926;2022-07-06T04:49:38;9.90;;;7.70;;
46318;SDS011;32042;50.916;2.926;2022-07-06T04:52:04;8.63;;;7.83;;
46318;SDS011;32042;50.916;2.926;2022-07-06T04:54:30;12.87;;;8.00;;
46318;SDS011;32042;50.916;2.926;2022-07-06T04:56:56;8.67;;;7.47;;
46318;SDS011;32042;50.916;2.926;2022-07-06T04:59:22;8.73;;;7.77;;
46318;SDS011;32042;50.916;2.926;2022-07-06T05:01:47;13.70;;;8.00;;
46318;SDS011;32042;50.916;2.926;2022-07-06T05:04:13;10.37;;;7.30;;
46318;SDS011;32042;50.916;2.926;2022-07-06T05:06:39;11.87;;;7.30;;
46318;SDS011;32042;50.916;2.926;2022-07-06T05:09:05;8.87;;;7.97;;
46318;SDS011;32042;50.916;2.926;2022-07-06T05:11:31;8.13;;;7.27;;
46318;SDS011;32042;50.916;2.926;2022-07-06T05:13:57;13.77;;;7.70;;
46318;SDS011;32042;50.916;2.926;2022-07-06T05:16:23;9.13;;;7.13;;
46318;SDS011;32042;50.916;2.926;2022-07-06T05:18:48;17.20;;;8.00;;
46318;SDS011;32042;50.916;2.926;2022-07-06T05:21:14;13.53;;;7.07;;
46318;SDS011;32042;50.916;2.926;2022-07-06T05:23:40;14.90;;;7.10;;
46318;SDS011;32042;50.916;2.926;2022-07-06T05:26:06;10.43;;;7.10;;
46318;SDS011;32042;50.916;2.926;2022-07-06T05:28:32;8.17;;;7.23;;
46318;SDS011;32042;50.916;2.926;2022-07-06T05:30:57;15.93;;;7.50;;
46318;SDS011;32042;50.916;2.926;2022-07-06T05:33:24;9.70;;;7.93;;
46318;SDS011;32042;50.916;2.926;2022-07-06T05:35:50;11.67;;;7.40;;
46318;SDS011;32042;50.916;2.926;2022-07-06T05:38:15;8.80;;;7.90;;
46318;SDS011;32042;50.916;2.926;2022-07-06T05:40:41;11.43;;;7.83;;
46318;SDS011;32042;50.916;2.926;2022-07-06T05:43:07;9.80;;;7.33;;
46318;SDS011;32042;50.916;2.926;2022-07-06T05:45:33;10.80;;;7.73;;
46318;SDS011;32042;50.916;2.926;2022-07-06T05:47:58;14.13;;;7.87;;
46318;SDS011;32042;50.916;2.926;2022-07-06T05:50:42;15.53;;;8.33;;
46318;SDS011;32042;50.916;2.926;2022-07-06T05:53:08;10.70;;;7.30;;
46318;SDS011;32042;50.916;2.926;2022-07-06T05:55:34;11.33;;;7.63;;
46318;SDS011;32042;50.916;2.926;2022-07-06T05:58:00;10.53;;;7.67;;
46318;SDS011;32042;50.916;2.926;2022-07-06T06:00:26;12.57;;;7.70;;
46318;SDS011;32042;50.916;2.926;2022-07-06T06:02:52;11.23;;;7.67;;
46318;SDS011;32042;50.916;2.926;2022-07-06T06:05:18;11.63;;;7.43;;
46318;SDS011;32042;50.916;2.926;2022-07-06T06:07:44;11.03;;;7.20;;
46318;SDS011;32042;50.916;2.926;2022-07-06T06:10:16;16.23;;;7.57;;
46318;SDS011;32042;50.916;2.926;2022-07-06T06:12:43;12.20;;;7.93;;
46318;SDS011;32042;50.916;2.926;2022-07-06T06:15:09;10.07;;;7.40;;
46318;SDS011;32042;50.916;2.926;2022-07-06T06:17:36;12.80;;;7.43;;
46318;SDS011;32042;50.916;2.926;2022-07-06T06:20:03;12.87;;;8.13;;
46318;SDS011;32042;50.916;2.926;2022-07-06T06:22:31;11.50;;;7.87;;
46318;SDS011;32042;50.916;2.926;2022-07-06T06:25:08;10.20;;;8.20;;
46318;SDS011;32042;50.916;2.926;2022-07-06T06:27:34;8.17;;;7.23;;
46318;SDS011;32042;50.916;2.926;2022-07-06T06:30:00;16.33;;;7.13;;
46318;SDS011;32042;50.916;2.926;2022-07-06T06:32:26;10.20;;;7.63;;
46318;SDS011;32042;50.916;2.926;2022-07-06T06:34:51;12.43;;;7.93;;
46318;SDS011;32042;50.916;2.926;2022-07-06T06:37:17;12.37;;;7.57;;
46318;SDS011;32042;50.916;2.926;2022-07-06T06:39:43;11.77;;;7.80;;
46318;SDS011;32042;50.916;2.926;2022-07-06T06:42:08;15.13;;;7.85;;
46318;SDS011;32042;50.916;2.926;2022-07-06T06:44:34;11.48;;;8.07;;
46318;SDS011;32042;50.916;2.926;2022-07-06T06:47:00;17.73;;;8.05;;
46318;SDS011;32042;50.916;2.926;2022-07-06T06:49:25;13.38;;;9.13;;
46318;SDS011;32042;50.916;2.926;2022-07-06T06:51:51;11.30;;;8.48;;
46318;SDS011;32042;50.916;2.926;2022-07-06T06:54:17;19.38;;;8.73;;
46318;SDS011;32042;50.916;2.926;2022-07-06T06:56:42;9.20;;;8.23;;
46318;SDS011;32042;50.916;2.926;2022-07-06T06:59:08;10.32;;;8.85;;
46318;SDS011;32042;50.916;2.926;2022-07-06T07:01:34;12.70;;;8.38;;
46318;SDS011;32042;50.916;2.926;2022-07-06T07:03:59;11.90;;;7.70;;
46318;SDS011;32042;50.916;2.926;2022-07-06T07:06:25;13.05;;;8.15;;
46318;SDS011;32042;50.916;2.926;2022-07-06T07:08:51;9.18;;;7.13;;
46318;SDS011;32042;50.916;2.926;2022-07-06T07:11:17;11.60;;;8.30;;
46318;SDS011;32042;50.916;2.926;2022-07-06T07:13:42;10.88;;;7.88;;
46318;SDS011;32042;50.916;2.926;2022-07-06T07:16:08;9.50;;;7.55;;
46318;SDS011;32042;50.916;2.926;2022-07-06T07:18:34;9.23;;;8.13;;
46318;SDS011;32042;50.916;2.926;2022-07-06T07:21:00;10.35;;;8.07;;
46318;SDS011;32042;50.916;2.926;2022-07-06T07:23:26;13.85;;;7.63;;
46318;SDS011;32042;50.916;2.926;2022-07-06T07:25:52;9.63;;;7.55;;
46318;SDS011;32042;50.916;2.926;2022-07-06T07:28:18;11.25;;;7.97;;
46318;SDS011;32042;50.916;2.926;2022-07-06T07:30:43;10.95;;;8.07;;
46318;SDS011;32042;50.916;2.926;2022-07-06T07:33:09;8.05;;;7.25;;
46318;SDS011;32042;50.916;2.926;2022-07-06T07:35:35;7.95;;;6.97;;
46318;SDS011;32042;50.916;2.926;2022-07-06T07:38:00;12.00;;;8.45;;
46318;SDS011;32042;50.916;2.926;2022-07-06T07:40:26;14.68;;;7.90;;
46318;SDS011;32042;50.916;2.926;2022-07-06T07:42:52;11.23;;;7.00;;
46318;SDS011;32042;50.916;2.926;2022-07-06T07:45:18;9.32;;;7.07;;
46318;SDS011;32042;50.916;2.926;2022-07-06T07:47:44;14.65;;;7.53;;
46318;SDS011;32042;50.916;2.926;2022-07-06T07:50:09;30.73;;;11.98;;
46318;SDS011;32042;50.916;2.926;2022-07-06T07:52:35;44.95;;;17.83;;
46318;SDS011;32042;50.916;2.926;2022-07-06T07:55:01;28.92;;;11.60;;
46318;SDS011;32042;50.916;2.926;2022-07-06T07:57:27;11.68;;;7.30;;
46318;SDS011;32042;50.916;2.926;2022-07-06T07:59:53;9.82;;;7.00;;
46318;SDS011;32042;50.916;2.926;2022-07-06T08:02:19;10.20;;;6.78;;
46318;SDS011;32042;50.916;2.926;2022-07-06T08:04:44;14.23;;;7.00;;
46318;SDS011;32042;50.916;2.926;2022-07-06T08:07:10;10.50;;;7.43;;
46318;SDS011;32042;50.916;2.926;2022-07-06T08:09:36;9.90;;;6.93;;
46318;SDS011;32042;50.916;2.926;2022-07-06T08:12:03;9.52;;;7.20;;
46318;SDS011;32042;50.916;2.926;2022-07-06T08:14:31;8.25;;;7.13;;
46318;SDS011;32042;50.916;2.926;2022-07-06T08:16:56;10.82;;;6.75;;
46318;SDS011;32042;50.916;2.926;2022-07-06T08:19:22;15.68;;;7.53;;
46318;SDS011;32042;50.916;2.926;2022-07-06T08:21:48;12.88;;;7.28;;
46318;SDS011;32042;50.916;2.926;2022-07-06T08:24:14;13.38;;;7.50;;
46318;SDS011;32042;50.916;2.926;2022-07-06T08:26:40;14.63;;;7.45;;
46318;SDS011;32042;50.916;2.926;2022-07-06T08:29:05;11.48;;;7.55;;
46318;SDS011;32042;50.916;2.926;2022-07-06T08:31:31;16.30;;;8.63;;
46318;SDS011;32042;50.916;2.926;2022-07-06T08:33:59;9.60;;;7.75;;
46318;SDS011;32042;50.916;2.926;2022-07-06T08:36:26;13.70;;;7.95;;
46318;SDS011;32042;50.916;2.926;2022-07-06T08:38:51;15.07;;;9.45;;
46318;SDS011;32042;50.916;2.926;2022-07-06T08:41:17;11.75;;;9.13;;
46318;SDS011;32042;50.916;2.926;2022-07-06T08:43:44;10.85;;;8.00;;
46318;SDS011;32042;50.916;2.926;2022-07-06T08:46:10;11.93;;;8.48;;
46318;SDS011;32042;50.916;2.926;2022-07-06T08:48:39;14.77;;;10.02;;
46318;SDS011;32042;50.916;2.926;2022-07-06T08:51:06;9.82;;;8.77;;
46318;SDS011;32042;50.916;2.926;2022-07-06T08:53:32;10.35;;;8.80;;
46318;SDS011;32042;50.916;2.926;2022-07-06T08:55:58;13.13;;;10.20;;
46318;SDS011;32042;50.916;2.926;2022-07-06T08:58:24;14.35;;;10.13;;
46318;SDS011;32042;50.916;2.926;2022-07-06T09:00:56;11.27;;;9.60;;
46318;SDS011;32042;50.916;2.926;2022-07-06T09:03:23;10.55;;;9.25;;
46318;SDS011;32042;50.916;2.926;2022-07-06T09:05:49;14.52;;;10.27;;
46318;SDS011;32042;50.916;2.926;2022-07-06T09:08:17;12.93;;;9.45;;
46318;SDS011;32042;50.916;2.926;2022-07-06T09:10:45;11.63;;;9.18;;
46318;SDS011;32042;50.916;2.926;2022-07-06T09:13:14;17.77;;;10.85;;
46318;SDS011;32042;50.916;2.926;2022-07-06T09:15:42;14.23;;;11.48;;
46318;SDS011;32042;50.916;2.926;2022-07-06T09:18:08;15.35;;;12.13;;
46318;SDS011;32042;50.916;2.926;2022-07-06T09:20:34;13.23;;;11.82;;
46318;SDS011;32042;50.916;2.926;2022-07-06T09:23:00;14.82;;;12.50;;
46318;SDS011;32042;50.916;2.926;2022-07-06T09:25:28;12.98;;;11.68;;
46318;SDS011;32042;50.916;2.926;2022-07-06T09:27:56;13.88;;;10.80;;
46318;SDS011;32042;50.916;2.926;2022-07-06T09:30:23;13.82;;;11.45;;
46318;SDS011;32042;50.916;2.926;2022-07-06T09:32:51;12.95;;;10.82;;
46318;SDS011;32042;50.916;2.926;2022-07-06T09:35:31;13.57;;;11.63;;
46318;SDS011;32042;50.916;2.926;2022-07-06T09:40:37;12.68;;;11.40;;
46318;SDS011;32042;50.916;2.926;2022-07-06T09:45:52;12.85;;;11.20;;
46318;SDS011;32042;50.916;2.926;2022-07-06T09:48:20;12.30;;;11.15;;
46318;SDS011;32042;50.916;2.926;2022-07-06T09:50:51;11.95;;;10.65;;
46318;SDS011;32042;50.916;2.926;2022-07-06T09:53:19;12.27;;;11.07;;
46318;SDS011;32042;50.916;2.926;2022-07-06T09:55:46;11.15;;;10.07;;
46318;SDS011;32042;50.916;2.926;2022-07-06T09:58:13;8.77;;;7.88;;
46318;SDS011;32042;50.916;2.926;2022-07-06T10:00:40;8.65;;;7.47;;
46318;SDS011;32042;50.916;2.926;2022-07-06T10:03:09;13.40;;;8.45;;
46318;SDS011;32042;50.916;2.926;2022-07-06T10:05:36;11.00;;;9.95;;
46318;SDS011;32042;50.916;2.926;2022-07-06T10:08:03;11.13;;;9.18;;
46318;SDS011;32042;50.916;2.926;2022-07-06T10:10:31;9.85;;;8.50;;
46318;SDS011;32042;50.916;2.926;2022-07-06T10:12:58;10.55;;;8.70;;
46318;SDS011;32042;50.916;2.926;2022-07-06T10:15:27;7.45;;;6.43;;
46318;SDS011;32042;50.916;2.926;2022-07-06T10:17:56;10.23;;;5.82;;
46318;SDS011;32042;50.916;2.926;2022-07-06T10:20:23;13.43;;;5.90;;
46318;SDS011;32042;50.916;2.926;2022-07-06T10:22:53;11.82;;;5.95;;
46318;SDS011;32042;50.916;2.926;2022-07-06T10:25:22;6.45;;;5.63;;
46318;SDS011;32042;50.916;2.926;2022-07-06T10:27:49;8.25;;;6.03;;
46318;SDS011;32042;50.916;2.926;2022-07-06T10:30:17;5.80;;;4.30;;
46318;SDS011;32042;50.916;2.926;2022-07-06T10:32:44;6.38;;;4.47;;
46318;SDS011;32042;50.916;2.926;2022-07-06T10:35:12;4.32;;;3.40;;
46318;SDS011;32042;50.916;2.926;2022-07-06T10:37:39;4.05;;;2.75;;
46318;SDS011;32042;50.916;2.926;2022-07-06T10:40:06;4.80;;;2.90;;
46318;SDS011;32042;50.916;2.926;2022-07-06T10:43:01;3.25;;;2.60;;
46318;SDS011;32042;50.916;2.926;2022-07-06T10:48:35;4.50;;;3.10;;
46318;SDS011;32042;50.916;2.926;2022-07-06T10:53:13;6.00;;;3.10;;
46318;SDS011;32042;50.916;2.926;2022-07-06T10:55:43;5.85;;;3.30;;
46318;SDS011;32042;50.916;2.926;2022-07-06T10:58:12;4.90;;;4.30;;
46318;SDS011;32042;50.916;2.926;2022-07-06T11:00:49;5.80;;;4.05;;
46318;SDS011;32042;50.916;2.926;2022-07-06T11:03:50;6.35;;;3.83;;
46318;SDS011;32042;50.916;2.926;2022-07-06T11:11:58;7.43;;;4.20;;
46318;SDS011;32042;50.916;2.926;2022-07-06T11:16:27;6.05;;;4.03;;
46318;SDS011;32042;50.916;2.926;2022-07-06T11:18:59;4.78;;;4.07;;
46318;SDS011;32042;50.916;2.926;2022-07-06T11:21:32;7.05;;;3.83;;
46318;SDS011;32042;50.916;2.926;2022-07-06T11:24:03;5.45;;;4.38;;
46318;SDS011;32042;50.916;2.926;2022-07-06T11:26:31;5.68;;;4.72;;
46318;SDS011;32042;50.916;2.926;2022-07-06T11:28:58;5.07;;;4.68;;
46318;SDS011;32042;50.916;2.926;2022-07-06T11:31:25;6.60;;;6.00;;
46318;SDS011;32042;50.916;2.926;2022-07-06T11:33:51;6.35;;;4.88;;
46318;SDS011;32042;50.916;2.926;2022-07-06T11:36:20;5.90;;;4.75;;
46318;SDS011;32042;50.916;2.926;2022-07-06T11:38:48;6.18;;;4.53;;
46318;SDS011;32042;50.916;2.926;2022-07-06T11:41:15;5.30;;;3.30;;
46318;SDS011;32042;50.916;2.926;2022-07-06T11:43:43;4.90;;;4.50;;
46318;SDS011;32042;50.916;2.926;2022-07-06T11:48:56;5.90;;;3.63;;
46318;SDS011;32042;50.916;2.926;2022-07-06T11:51:30;3.88;;;3.58;;
46318;SDS011;32042;50.916;2.926;2022-07-06T11:53:59;7.35;;;4.00;;
46318;SDS011;32042;50.916;2.926;2022-07-06T11:56:26;7.15;;;3.95;;
46318;SDS011;32042;50.916;2.926;2022-07-06T11:58:54;3.95;;;3.10;;
46318;SDS011;32042;50.916;2.926;2022-07-06T12:01:22;6.28;;;3.40;;
46318;SDS011;32042;50.916;2.926;2022-07-06T12:03:48;5.15;;;3.00;;
46318;SDS011;32042;50.916;2.926;2022-07-06T12:06:16;5.00;;;2.70;;
46318;SDS011;32042;50.916;2.926;2022-07-06T12:08:47;3.67;;;2.63;;
46318;SDS011;32042;50.916;2.926;2022-07-06T12:11:16;4.78;;;2.90;;
46318;SDS011;32042;50.916;2.926;2022-07-06T12:13:48;5.68;;;2.78;;
46318;SDS011;32042;50.916;2.926;2022-07-06T12:16:18;7.07;;;3.42;;
46318;SDS011;32042;50.916;2.926;2022-07-06T12:18:46;6.15;;;2.70;;
46318;SDS011;32042;50.916;2.926;2022-07-06T12:21:13;7.88;;;3.30;;
46318;SDS011;32042;50.916;2.926;2022-07-06T12:23:45;3.70;;;3.35;;
46318;SDS011;32042;50.916;2.926;2022-07-06T12:26:14;6.53;;;3.03;;
46318;SDS011;32042;50.916;2.926;2022-07-06T12:28:41;5.60;;;3.00;;
46318;SDS011;32042;50.916;2.926;2022-07-06T12:31:08;5.30;;;3.03;;
46318;SDS011;32042;50.916;2.926;2022-07-06T12:33:35;6.72;;;3.63;;
46318;SDS011;32042;50.916;2.926;2022-07-06T12:36:11;4.57;;;2.83;;
46318;SDS011;32042;50.916;2.926;2022-07-06T12:38:43;6.72;;;3.33;;
46318;SDS011;32042;50.916;2.926;2022-07-06T12:41:11;4.63;;;2.47;;
46318;SDS011;32042;50.916;2.926;2022-07-06T12:43:48;4.30;;;2.63;;
46318;SDS011;32042;50.916;2.926;2022-07-06T12:46:28;6.95;;;2.50;;
46318;SDS011;32042;50.916;2.926;2022-07-06T12:48:56;3.70;;;2.70;;
46318;SDS011;32042;50.916;2.926;2022-07-06T12:51:22;6.55;;;2.60;;
46318;SDS011;32042;50.916;2.926;2022-07-06T12:53:49;3.42;;;2.15;;
46318;SDS011;32042;50.916;2.926;2022-07-06T12:56:15;7.13;;;2.33;;
46318;SDS011;32042;50.916;2.926;2022-07-06T12:59:00;5.80;;;1.83;;
46318;SDS011;32042;50.916;2.926;2022-07-06T13:01:27;3.03;;;1.83;;
46318;SDS011;32042;50.916;2.926;2022-07-06T13:03:56;2.63;;;1.65;;
46318;SDS011;32042;50.916;2.926;2022-07-06T13:06:40;2.90;;;1.77;;
46318;SDS011;32042;50.916;2.926;2022-07-06T13:09:06;4.28;;;1.73;;
46318;SDS011;32042;50.916;2.926;2022-07-06T13:11:32;6.07;;;1.70;;
46318;SDS011;32042;50.916;2.926;2022-07-06T13:13:58;4.50;;;1.67;;
46318;SDS011;32042;50.916;2.926;2022-07-06T13:16:24;2.85;;;1.70;;
46318;SDS011;32042;50.916;2.926;2022-07-06T13:18:55;2.30;;;1.60;;
46318;SDS011;32042;50.916;2.926;2022-07-06T13:21:21;2.75;;;1.40;;
46318;SDS011;32042;50.916;2.926;2022-07-06T13:23:47;3.08;;;1.30;;
46318;SDS011;32042;50.916;2.926;2022-07-06T13:26:13;3.83;;;0.88;;
46318;SDS011;32042;50.916;2.926;2022-07-06T13:28:38;1.85;;;0.95;;
46318;SDS011;32042;50.916;2.926;2022-07-06T13:31:04;2.25;;;0.98;;
46318;SDS011;32042;50.916;2.926;2022-07-06T13:33:30;3.40;;;1.05;;
46318;SDS011;32042;50.916;2.926;2022-07-06T13:35:55;2.40;;;0.88;;
46318;SDS011;32042;50.916;2.926;2022-07-06T13:38:21;1.70;;;0.90;;
46318;SDS011;32042;50.916;2.926;2022-07-06T13:40:47;5.28;;;1.00;;
46318;SDS011;32042;50.916;2.926;2022-07-06T13:43:13;4.80;;;1.20;;
46318;SDS011;32042;50.916;2.926;2022-07-06T13:45:38;2.13;;;0.80;;
46318;SDS011;32042;50.916;2.926;2022-07-06T13:48:04;3.33;;;1.20;;
46318;SDS011;32042;50.916;2.926;2022-07-06T13:50:30;2.15;;;0.80;;
46318;SDS011;32042;50.916;2.926;2022-07-06T13:52:57;2.05;;;1.00;;
46318;SDS011;32042;50.916;2.926;2022-07-06T13:55:23;4.53;;;0.98;;
46318;SDS011;32042;50.916;2.926;2022-07-06T13:57:49;2.08;;;1.20;;
46318;SDS011;32042;50.916;2.926;2022-07-06T14:00:15;3.20;;;1.10;;
46318;SDS011;32042;50.916;2.926;2022-07-06T14:02:43;4.07;;;1.13;;
46318;SDS011;32042;50.916;2.926;2022-07-06T14:05:09;2.88;;;1.00;;
46318;SDS011;32042;50.916;2.926;2022-07-06T14:07:35;5.10;;;1.00;;
46318;SDS011;32042;50.916;2.926;2022-07-06T14:10:01;1.48;;;0.73;;
46318;SDS011;32042;50.916;2.926;2022-07-06T14:12:28;2.08;;;0.50;;
46318;SDS011;32042;50.916;2.926;2022-07-06T14:14:53;1.73;;;0.47;;
46318;SDS011;32042;50.916;2.926;2022-07-06T14:17:19;1.15;;;0.28;;
46318;SDS011;32042;50.916;2.926;2022-07-06T14:19:45;0.40;;;0.32;;
46318;SDS011;32042;50.916;2.926;2022-07-06T14:22:11;0.73;;;0.30;;
46318;SDS011;32042;50.916;2.926;2022-07-06T14:24:36;0.35;;;0.20;;
46318;SDS011;32042;50.916;2.926;2022-07-06T14:27:02;0.35;;;0.30;;
46318;SDS011;32042;50.916;2.926;2022-07-06T14:29:28;0.75;;;0.43;;
46318;SDS011;32042;50.916;2.926;2022-07-06T14:31:54;0.80;;;0.40;;
46318;SDS011;32042;50.916;2.926;2022-07-06T14:34:19;0.63;;;0.30;;
46318;SDS011;32042;50.916;2.926;2022-07-06T14:36:45;1.27;;;0.50;;
46318;SDS011;32042;50.916;2.926;2022-07-06T14:39:11;1.55;;;0.30;;
46318;SDS011;32042;50.916;2.926;2022-07-06T14:41:37;2.35;;;1.25;;
46318;SDS011;32042;50.916;2.926;2022-07-06T14:44:04;0.88;;;0.30;;
46318;SDS011;32042;50.916;2.926;2022-07-06T14:46:30;0.68;;;0.40;;
46318;SDS011;32042;50.916;2.926;2022-07-06T14:48:56;1.27;;;0.60;;
46318;SDS011;32042;50.916;2.926;2022-07-06T14:51:22;0.40;;;0.40;;
46318;SDS011;32042;50.916;2.926;2022-07-06T14:53:47;0.88;;;0.47;;
46318;SDS011;32042;50.916;2.926;2022-07-06T14:56:13;1.42;;;0.60;;
46318;SDS011;32042;50.916;2.926;2022-07-06T14:58:39;0.80;;;0.50;;
46318;SDS011;32042;50.916;2.926;2022-07-06T15:01:05;0.85;;;0.70;;